createdAt,value
2022-11-29T00:00:50.137Z,-11.72
2022-11-29T00:03:18.133Z,-11.61
2022-11-29T00:05:44.793Z,-11.61
2022-11-29T00:08:11.378Z,-11.68
2022-11-29T00:10:39.975Z,-11.67
2022-11-29T00:13:06.518Z,-11.76
2022-11-29T00:15:38.347Z,-11.69
2022-11-29T00:18:06.633Z,-11.72
2022-11-29T00:20:34.406Z,-11.91
2022-11-29T00:23:01.285Z,-11.75
2022-11-29T00:25:28.297Z,-11.87
2022-11-29T00:27:54.922Z,-11.73
2022-11-29T00:30:21.740Z,-11.67
2022-11-29T00:32:49.237Z,-11.84
2022-11-29T00:35:15.785Z,-11.70
2022-11-29T00:37:42.386Z,-11.82
2022-11-29T00:40:10.084Z,-11.72
2022-11-29T00:42:36.671Z,-11.85
2022-11-29T00:45:03.520Z,-11.76
2022-11-29T00:47:30.106Z,-11.73
2022-11-29T00:49:56.707Z,-11.74
2022-11-29T00:52:23.355Z,-11.78
2022-11-29T00:54:50.697Z,-11.81
2022-11-29T00:57:17.239Z,-11.78
2022-11-29T00:59:43.786Z,-11.81
2022-11-29T01:02:10.415Z,-11.87
2022-11-29T01:04:36.989Z,-11.89
2022-11-29T01:07:03.671Z,-11.95
2022-11-29T01:09:31.340Z,-12.02
2022-11-29T01:11:57.886Z,-12.00
2022-11-29T01:14:25.474Z,-12.02
2022-11-29T01:16:52.257Z,-12.04
2022-11-29T01:19:18.871Z,-12.18
2022-11-29T01:21:45.443Z,-12.20
2022-11-29T01:24:18.120Z,-12.22
2022-11-29T01:26:44.674Z,-12.17
2022-11-29T01:29:13.151Z,-12.15
2022-11-29T01:31:40.059Z,-12.30
2022-11-29T01:34:07.765Z,-12.16
2022-11-29T01:36:34.866Z,-12.26
2022-11-29T01:39:03.239Z,-12.18
2022-11-29T01:41:33.219Z,-12.15
2022-11-29T01:44:11.804Z,-12.13
2022-11-29T01:46:46.713Z,-12.15
2022-11-29T01:49:21.944Z,-12.33
2022-11-29T01:51:59.920Z,-12.23
2022-11-29T01:54:28.400Z,-12.07
2022-11-29T01:56:54.987Z,-12.02
2022-11-29T01:59:25.772Z,-12.05
2022-11-29T02:01:53.079Z,-11.98
2022-11-29T02:04:20.176Z,-11.98
2022-11-29T02:06:46.891Z,-11.90
2022-11-29T02:09:22.473Z,-11.95
2022-11-29T02:12:10.707Z,-11.85
2022-11-29T02:14:48.332Z,-11.78
2022-11-29T02:17:29.685Z,-11.88
2022-11-29T02:20:30.443Z,-11.72
2022-11-29T02:23:34.686Z,-11.75
2022-11-29T02:26:16.418Z,-11.82
2022-11-29T02:29:09.246Z,-11.77
2022-11-29T02:31:57.545Z,-11.72
2022-11-29T02:34:45.462Z,-11.75
2022-11-29T02:37:27.538Z,-11.70
2022-11-29T02:40:13.009Z,-11.66
2022-11-29T02:43:17.702Z,-11.62
2022-11-29T02:45:53.497Z,-11.57
2022-11-29T02:48:31.274Z,-11.55
2022-11-29T02:51:27.721Z,-11.55
2022-11-29T02:54:00.496Z,-11.64
2022-11-29T02:56:48.971Z,-11.61
2022-11-29T02:59:40.240Z,-11.64
2022-11-29T03:02:31.284Z,-11.66
2022-11-29T03:05:26.947Z,-11.74
2022-11-29T03:08:26.812Z,-11.66
2022-11-29T03:11:00.495Z,-11.63
2022-11-29T03:13:36.588Z,-11.63
2022-11-29T03:16:05.350Z,-11.64
2022-11-29T03:18:48.407Z,-11.71
2022-11-29T03:21:24.586Z,-11.67
2022-11-29T03:23:53.733Z,-11.66
2022-11-29T03:26:43.961Z,-11.64
2022-11-29T03:29:31.687Z,-11.67
2022-11-29T03:32:16.572Z,-11.72
2022-11-29T03:34:56.989Z,-11.94
2022-11-29T03:37:37.953Z,-11.95
2022-11-29T03:40:08.678Z,-11.83
2022-11-29T03:42:53.382Z,-11.83
2022-11-29T03:45:25.885Z,-11.99
2022-11-29T03:48:01.959Z,-11.88
2022-11-29T19:04:24.266Z,-13.74
2022-11-29T19:06:51.276Z,-13.65
2022-11-29T19:09:28.015Z,-13.72
2022-11-29T19:11:55.269Z,-13.54
2022-11-29T19:14:21.943Z,-13.44
2022-11-29T19:16:49.900Z,-13.31
2022-11-29T19:19:20.202Z,-13.19
2022-11-29T19:21:47.396Z,-13.14
2022-11-29T19:24:18.561Z,-13.09
2022-11-29T19:27:04.707Z,-13.02
2022-11-29T19:29:39.366Z,-13.02
2022-11-29T19:32:12.502Z,-12.95
2022-11-29T19:34:41.907Z,-13.11
2022-11-29T19:37:34.942Z,-12.86
2022-11-29T19:40:01.544Z,-12.82
2022-11-29T19:42:28.081Z,-12.88
2022-11-29T19:45:16.413Z,-12.89
2022-11-29T19:47:43.958Z,-12.90
2022-11-29T19:50:11.469Z,-12.96
2022-11-29T19:52:38.192Z,-13.03
2022-11-29T19:55:05.060Z,-13.00
2022-11-29T19:57:31.953Z,-13.01
2022-11-29T19:59:59.309Z,-13.01
2022-11-29T20:02:39.496Z,-13.00
2022-11-29T20:05:06.658Z,-12.98
2022-11-29T20:07:33.400Z,-13.01
2022-11-29T20:10:00.360Z,-13.00
2022-11-29T20:12:26.928Z,-13.01
2022-11-29T20:14:53.466Z,-13.06
2022-11-29T20:17:20.836Z,-13.05
2022-11-29T20:19:47.709Z,-13.11
2022-11-29T20:22:14.943Z,-13.31
2022-11-29T20:24:45.588Z,-13.25
2022-11-29T20:27:12.390Z,-13.30
2022-11-29T20:29:38.935Z,-13.38
2022-11-29T20:32:05.762Z,-13.39
2022-11-29T20:34:32.521Z,-13.43
2022-11-29T20:37:11.387Z,-13.48
2022-11-29T20:39:49.903Z,-13.56
2022-11-29T20:42:30.144Z,-13.59
2022-11-29T20:44:59.550Z,-13.62
2022-11-29T20:47:52.281Z,-13.64
2022-11-29T20:50:23.778Z,-13.67
2022-11-29T20:52:56.088Z,-13.63
2022-11-29T20:55:22.758Z,-13.65
2022-11-29T20:57:49.926Z,-13.61
2022-11-29T21:00:16.904Z,-13.53
2022-11-29T21:02:44.589Z,-13.82
2022-11-29T21:05:11.301Z,-13.48
2022-11-29T21:07:37.980Z,-13.50
2022-11-29T21:10:05.349Z,-13.64
2022-11-29T21:12:32.303Z,-13.59
2022-11-29T21:14:59.281Z,-13.48
2022-11-29T21:17:31.895Z,-13.49
2022-11-29T21:20:00.560Z,-13.54
2022-11-29T21:22:35.857Z,-13.59
2022-11-29T21:25:28.503Z,-13.63
2022-11-29T21:27:55.654Z,-13.64
2022-11-29T21:30:24.931Z,-13.61
2022-11-29T21:32:52.243Z,-13.65
2022-11-29T21:35:18.943Z,-13.60
2022-11-29T21:37:48.646Z,-13.73
2022-11-29T21:40:16.258Z,-13.50
2022-11-29T21:42:44.991Z,-13.44
2022-11-29T21:45:15.147Z,-13.29
2022-11-29T21:47:44.022Z,-13.17
2022-11-29T21:50:12.354Z,-13.07
2022-11-29T21:52:39.066Z,-13.06
2022-11-29T21:55:07.526Z,-13.06
2022-11-29T21:57:34.080Z,-12.99
2022-11-29T22:00:01.583Z,-13.02
2022-11-29T22:02:28.624Z,-12.87
2022-11-29T22:04:55.383Z,-12.98
2022-11-29T22:07:22.053Z,-12.84
2022-11-29T22:09:48.651Z,-12.83
2022-11-29T22:12:33.159Z,-12.83
2022-11-29T22:15:00.615Z,-12.84
2022-11-29T22:17:27.175Z,-12.85
2022-11-29T22:19:53.754Z,-12.76
2022-11-29T22:22:20.569Z,-12.79
2022-11-29T22:24:47.454Z,-12.75
2022-11-29T22:27:14.375Z,-12.79
2022-11-29T22:29:40.995Z,-12.96
2022-11-29T22:32:07.573Z,-12.83
2022-11-29T22:34:34.136Z,-12.81
2022-11-29T22:37:01.558Z,-12.80
2022-11-29T22:39:28.167Z,-12.92
2022-11-29T22:41:55.418Z,-12.89
2022-11-29T22:44:25.377Z,-13.00
2022-11-29T22:46:54.767Z,-13.08
2022-11-29T22:49:21.413Z,-13.16
2022-11-29T22:51:48.149Z,-13.30
2022-11-29T22:54:18.041Z,-13.49
2022-11-29T22:56:45.546Z,-13.57
2022-11-29T22:59:12.599Z,-13.63
2022-11-29T23:01:40.922Z,-13.53
2022-11-29T23:04:08.583Z,-13.66
2022-11-29T23:06:37.937Z,-13.64
2022-11-29T23:09:16.022Z,-13.69
2022-11-29T23:11:45.347Z,-13.76
2022-11-29T23:14:12.265Z,-13.80
2022-11-29T23:16:38.943Z,-14.03
2022-11-29T23:19:06.660Z,-13.94
2022-11-29T23:21:35.699Z,-13.89
2022-11-29T23:24:02.814Z,-13.89
2022-11-29T23:26:38.916Z,-13.92
2022-11-29T23:29:25.721Z,-13.91
2022-11-29T23:31:53.751Z,-14.04
2022-11-29T23:34:20.396Z,-14.19
2022-11-29T23:36:52.376Z,-14.02
2022-11-29T23:39:20.400Z,-14.03
2022-11-29T23:41:46.944Z,-14.23
2022-11-29T23:44:13.498Z,-14.08
2022-11-29T23:46:40.108Z,-14.17
2022-11-29T23:49:06.626Z,-14.14
2022-11-29T23:51:33.213Z,-14.17
2022-11-29T23:53:59.839Z,-14.16
2022-11-29T23:56:29.176Z,-14.38
2022-11-29T23:58:59.769Z,-14.36
